Hanalei, Hawaii
Current Conditions -  °F | °C
As of 10:53 PM on Tuesday 25 Nov 2014 (Local Time) from PHLI Reporting Station
Overcast Overcast  
Wind Chill: 23°   Ceiling: 4600
Heat Index: 23°   Visibility: 10mi
Dew Point: 14°   Wind: 17mph
Humidity: 57%   Direction: 40°NE
Pressure: 30.1"   Gusts: NA
Location:  22.2°N, 159.49°W
Report Text: PHLI 260853Z AUTO 04015KT 10SM OVC046 23/14 A3010 RMK AO2 SLP189 T02280139 51004 TSNO $
Loading
Personal Weather Stations






























Interactive Weather Map New forecast layout! Learn more

10-Day Weather Forecast

Advertisements
Track Severe Weather on mobile